createdAt,value
2018-09-02T00:02:06.061Z,18.90
2018-09-02T00:07:00.903Z,18.90
2018-09-02T00:09:28.359Z,18.90
2018-09-02T00:11:55.845Z,18.90
2018-09-02T00:14:23.273Z,18.90
2018-09-02T00:16:50.789Z,18.90
2018-09-02T00:19:18.211Z,18.90
2018-09-02T00:21:45.727Z,18.90
2018-09-02T00:24:13.227Z,18.90
2018-09-02T00:29:08.067Z,18.90
2018-09-02T00:31:35.653Z,18.90
2018-09-02T00:34:03.110Z,18.90
2018-09-02T00:36:30.819Z,18.90
2018-09-02T00:41:25.605Z,18.80
2018-09-02T00:43:53.047Z,18.80
2018-09-02T00:46:20.489Z,18.80
2018-09-02T00:48:47.962Z,18.90
2018-09-02T00:51:15.451Z,18.90
2018-09-02T00:53:42.885Z,18.90
2018-09-02T00:56:10.418Z,18.80
2018-09-02T01:01:05.378Z,18.90
2018-09-02T01:10:55.040Z,18.80
2018-09-02T01:13:22.497Z,18.90
2018-09-02T01:18:17.858Z,18.80
2018-09-02T01:20:45.937Z,18.90
2018-09-02T01:23:13.468Z,18.80
2018-09-02T01:33:03.652Z,18.80
2018-09-02T01:35:32.773Z,18.80
2018-09-02T01:38:01.566Z,18.80
2018-09-02T01:40:28.994Z,18.80
2018-09-02T01:42:56.445Z,18.80
2018-09-02T01:47:51.467Z,18.80
2018-09-02T01:50:19.157Z,18.80
2018-09-02T01:57:41.799Z,18.80
2018-09-02T02:00:09.248Z,18.80
2018-09-02T02:05:04.181Z,18.70
2018-09-02T02:12:26.435Z,18.80
2018-09-02T02:14:53.877Z,18.80
2018-09-02T02:17:21.378Z,18.80
2018-09-02T02:22:16.337Z,18.80
2018-09-02T02:24:43.793Z,18.80
2018-09-02T02:27:11.203Z,18.80
2018-09-02T02:32:06.045Z,18.80
2018-09-02T02:37:00.895Z,18.80
2018-09-02T02:39:28.368Z,18.80
2018-09-02T02:41:55.777Z,18.80
2018-09-02T02:46:50.651Z,18.80
2018-09-02T02:49:18.083Z,18.80
2018-09-02T02:51:46.166Z,18.80
2018-09-02T02:54:13.612Z,18.80
2018-09-02T02:59:08.434Z,18.80
2018-09-02T03:06:30.862Z,18.80
2018-09-02T03:08:58.313Z,18.80
2018-09-02T03:11:25.764Z,18.80
2018-09-02T03:13:53.175Z,18.80
2018-09-02T03:16:20.718Z,18.80
2018-09-02T03:28:37.693Z,18.80
2018-09-02T03:33:32.531Z,18.80
2018-09-02T03:38:27.437Z,18.80
2018-09-02T03:43:22.361Z,18.90
2018-09-02T03:45:49.810Z,18.80
2018-09-02T03:48:17.256Z,18.80
2018-09-02T03:50:44.693Z,18.80
2018-09-02T03:53:12.258Z,18.80
2018-09-02T03:55:39.662Z,18.80
2018-09-02T03:58:07.154Z,18.80
2018-09-02T04:03:02.080Z,18.80
2018-09-02T04:05:29.512Z,18.80
2018-09-02T04:10:24.327Z,18.80
2018-09-02T04:15:19.175Z,18.80
2018-09-02T04:20:17.422Z,18.80
2018-09-02T04:25:12.196Z,18.80
2018-09-02T04:27:40.356Z,18.80
2018-09-02T04:30:07.794Z,18.90
2018-09-02T04:32:35.284Z,18.80
2018-09-02T04:35:02.766Z,18.90
2018-09-02T04:37:30.282Z,18.90
2018-09-02T04:39:57.734Z,18.90
2018-09-02T04:42:25.166Z,18.90
2018-09-02T04:44:52.634Z,18.90
2018-09-02T04:49:48.176Z,18.90
2018-09-02T04:52:15.610Z,18.90
2018-09-02T04:54:43.055Z,18.90
2018-09-02T04:57:10.474Z,18.90
2018-09-02T05:04:32.718Z,18.90
2018-09-02T05:09:27.585Z,18.90
2018-09-02T05:11:55.056Z,18.90
2018-09-02T05:16:50.345Z,18.90
2018-09-02T05:19:17.814Z,18.90
2018-09-02T05:24:12.746Z,18.90
2018-09-02T05:26:40.197Z,18.90
2018-09-02T05:29:07.642Z,18.90
2018-09-02T05:31:35.142Z,19.00
2018-09-02T05:34:02.609Z,19.00
2018-09-02T05:36:30.128Z,19.00
2018-09-02T05:38:57.545Z,19.00
2018-09-02T05:43:52.400Z,19.00
2018-09-02T05:53:42.204Z,19.10
2018-09-02T06:01:05.108Z,19.10
2018-09-02T06:03:32.606Z,19.20
2018-09-02T06:06:00.202Z,19.10
2018-09-02T06:08:27.645Z,19.10
2018-09-02T06:10:55.134Z,19.20
2018-09-02T06:13:22.547Z,19.10
2018-09-02T06:18:17.370Z,19.20
2018-09-02T06:20:44.945Z,19.20
2018-09-02T06:23:12.403Z,19.20
2018-09-02T06:28:07.228Z,19.20
2018-09-02T06:30:34.719Z,19.30
2018-09-02T06:33:04.295Z,19.20
2018-09-02T06:35:31.796Z,19.30
2018-09-02T06:40:26.758Z,19.40
2018-09-02T06:42:54.233Z,19.30
2018-09-02T06:45:22.415Z,19.40
2018-09-02T06:47:50.141Z,19.40
2018-09-02T06:52:45.053Z,19.50
2018-09-02T06:55:12.651Z,19.50
2018-09-02T06:57:40.107Z,19.50
2018-09-02T07:00:07.631Z,19.50
2018-09-02T07:02:35.065Z,19.50
2018-09-02T07:05:02.598Z,19.60
2018-09-02T07:07:30.209Z,19.60
2018-09-02T07:09:57.575Z,19.60
2018-09-02T07:12:25.031Z,19.60
2018-09-02T07:14:53.090Z,19.60
2018-09-02T07:17:21.576Z,19.60
2018-09-02T07:19:49.003Z,19.60
2018-09-02T07:22:16.557Z,19.70
2018-09-02T07:24:44.010Z,19.70
2018-09-02T07:27:11.470Z,19.70
2018-09-02T07:29:38.938Z,19.70
2018-09-02T07:34:33.824Z,19.70
2018-09-02T07:37:01.286Z,19.70
2018-09-02T07:39:28.796Z,19.70
2018-09-02T07:41:56.324Z,19.70
2018-09-02T07:44:23.870Z,19.70
2018-09-02T07:46:51.334Z,19.70
2018-09-02T07:49:18.780Z,19.70
2018-09-02T07:51:46.778Z,19.70
2018-09-02T07:54:14.244Z,19.60
2018-09-02T07:59:09.062Z,19.70
2018-09-02T08:01:36.486Z,19.70
2018-09-02T08:04:03.930Z,19.70
2018-09-02T08:06:31.384Z,19.80
2018-09-02T08:08:58.918Z,19.80
2018-09-02T08:13:53.786Z,19.80
2018-09-02T08:16:21.317Z,19.90
2018-09-02T08:18:48.747Z,19.90
2018-09-02T08:21:16.218Z,19.90
2018-09-02T08:23:44.150Z,19.90
2018-09-02T08:26:11.599Z,19.90
2018-09-02T08:28:39.085Z,20.00
2018-09-02T08:31:06.628Z,19.90
2018-09-02T08:33:34.167Z,19.90
2018-09-02T08:36:01.627Z,19.90
2018-09-02T08:38:30.080Z,19.90
2018-09-02T08:40:57.573Z,19.90
2018-09-02T08:43:25.117Z,19.80
2018-09-02T08:45:52.746Z,19.80
2018-09-02T08:48:20.184Z,19.80
2018-09-02T08:50:48.306Z,19.80
2018-09-02T08:53:15.866Z,19.80
2018-09-02T08:55:43.334Z,19.80
2018-09-02T08:58:10.771Z,19.80
2018-09-02T09:05:41.139Z,19.80
2018-09-02T09:08:09.390Z,20.80
2018-09-02T09:10:37.245Z,18.10
2018-09-02T09:13:05.544Z,20.20
2018-09-02T09:15:37.161Z,22.50
2018-09-02T09:18:11.525Z,18.30
2018-09-02T09:20:49.700Z,19.50
2018-09-02T09:23:23.785Z,19.80
2018-09-02T09:25:56.140Z,20.10
2018-09-02T09:28:28.928Z,18.60
2018-09-02T09:31:05.831Z,20.00
2018-09-02T09:33:45.463Z,20.10
2018-09-02T09:36:17.623Z,17.70
2018-09-02T09:38:50.163Z,18.20
2018-09-02T09:41:24.189Z,20.30
2018-09-02T09:44:04.543Z,20.30
2018-09-02T09:46:41.007Z,20.50
2018-09-02T09:49:16.416Z,18.70
2018-09-02T09:51:48.028Z,20.20
2018-09-02T09:54:26.438Z,19.70
2018-09-02T09:57:04.495Z,19.80
2018-09-02T09:59:43.385Z,20.50
2018-09-02T10:02:24.235Z,22.60
2018-09-02T10:05:01.773Z,18.60
2018-09-02T10:07:45.921Z,20.60
2018-09-02T10:10:33.301Z,20.90
2018-09-02T10:13:03.045Z,24.10
2018-09-02T10:15:34.546Z,20.60
2018-09-02T10:18:06.483Z,20.10
2018-09-02T10:20:50.528Z,21.80
2018-09-02T10:23:23.817Z,21.00
2018-09-02T10:25:57.828Z,21.50
2018-09-02T10:31:05.028Z,18.30
2018-09-02T10:33:43.908Z,23.50
2018-09-02T10:36:18.698Z,20.60
2018-09-02T10:39:01.425Z,19.40
2018-09-02T10:44:17.850Z,21.30
2018-09-02T10:46:45.282Z,21.40
2018-09-02T10:49:12.791Z,21.40
2018-09-02T10:51:40.281Z,21.10
2018-09-02T10:54:08.282Z,21.40
2018-09-02T10:56:35.803Z,21.40
2018-09-02T10:59:03.226Z,21.40
2018-09-02T11:01:30.712Z,21.40
2018-09-02T11:03:58.170Z,21.40
2018-09-02T11:06:25.728Z,21.40
2018-09-02T11:08:53.192Z,21.40
2018-09-02T11:11:21.890Z,21.40
2018-09-02T11:13:49.788Z,21.40
2018-09-02T11:16:17.419Z,21.40
2018-09-02T11:18:44.888Z,21.40
2018-09-02T11:21:12.445Z,21.40
2018-09-02T11:23:39.938Z,21.40
2018-09-02T11:26:07.372Z,21.40
2018-09-02T11:28:34.830Z,21.40
2018-09-02T11:31:02.297Z,21.40
2018-09-02T11:33:29.792Z,21.40
2018-09-02T11:35:57.226Z,21.50
2018-09-02T11:38:24.708Z,21.40
2018-09-02T11:40:52.147Z,21.50
2018-09-02T11:43:19.562Z,21.50
2018-09-02T11:45:47.045Z,24.30
2018-09-02T11:48:15.247Z,21.50
2018-09-02T11:50:42.614Z,21.50
2018-09-02T11:53:10.047Z,21.50
2018-09-02T11:55:37.486Z,21.50
2018-09-02T11:58:04.966Z,21.50
2018-09-02T12:00:32.464Z,21.60
2018-09-02T12:02:59.950Z,21.70
2018-09-02T12:05:27.437Z,21.80
2018-09-02T12:07:54.915Z,21.90
2018-09-02T12:10:22.335Z,22.10
2018-09-02T12:12:50.018Z,22.20
2018-09-02T12:15:17.532Z,19.80
2018-09-02T12:17:45.069Z,22.30
2018-09-02T12:20:12.491Z,22.50
2018-09-02T12:22:39.975Z,22.40
2018-09-02T12:25:07.951Z,22.40
2018-09-02T12:27:35.395Z,22.40
2018-09-02T12:30:02.867Z,22.40
2018-09-02T12:32:30.286Z,22.40
2018-09-02T12:34:57.718Z,22.40
2018-09-02T12:37:25.287Z,22.40
2018-09-02T12:39:52.846Z,22.30
2018-09-02T12:42:20.347Z,22.30
2018-09-02T12:44:47.733Z,22.30
2018-09-02T12:47:15.183Z,22.10
2018-09-02T12:49:42.667Z,22.20
2018-09-02T12:52:10.140Z,22.20
2018-09-02T12:54:37.560Z,22.20
2018-09-02T12:57:04.990Z,22.20
2018-09-02T12:59:32.564Z,22.10
2018-09-02T13:02:00.058Z,22.20
2018-09-02T13:04:27.502Z,22.20
2018-09-02T13:06:55.052Z,22.20
2018-09-02T13:09:22.566Z,22.20
2018-09-02T13:11:50.059Z,22.20
2018-09-02T13:14:17.570Z,22.30
2018-09-02T13:16:45.041Z,22.30
2018-09-02T13:19:12.536Z,22.30
2018-09-02T13:21:39.997Z,22.30
2018-09-02T13:24:07.599Z,22.30
2018-09-02T13:26:37.678Z,22.40
2018-09-02T13:29:05.386Z,22.40
2018-09-02T13:31:33.193Z,22.50
2018-09-02T13:34:00.700Z,22.50
2018-09-02T13:36:28.476Z,22.50
2018-09-02T13:38:55.948Z,22.60
2018-09-02T13:41:24.096Z,22.60
2018-09-02T13:43:51.595Z,22.70
2018-09-02T13:46:19.055Z,22.70
2018-09-02T13:48:46.506Z,22.70
2018-09-02T13:51:13.975Z,22.70
2018-09-02T13:53:41.408Z,22.70
2018-09-02T13:56:08.858Z,22.70
2018-09-02T13:58:36.980Z,22.80
2018-09-02T14:01:04.508Z,22.80
2018-09-02T14:03:31.940Z,22.80
2018-09-02T14:05:59.384Z,22.70
2018-09-02T14:08:26.865Z,23.00
2018-09-02T14:10:54.974Z,23.00
2018-09-02T14:13:22.495Z,23.10
2018-09-02T14:15:50.006Z,23.10
2018-09-02T14:18:17.558Z,23.20
2018-09-02T14:20:45.112Z,23.20
2018-09-02T14:23:12.522Z,23.20
2018-09-02T14:25:40.022Z,23.20
2018-09-02T14:28:07.466Z,23.20
2018-09-02T14:30:34.918Z,23.20
2018-09-02T14:33:02.495Z,23.20
2018-09-02T14:35:30.061Z,23.10
2018-09-02T14:37:57.864Z,23.10
2018-09-02T14:40:25.366Z,23.00
2018-09-02T14:42:52.818Z,23.10
2018-09-02T14:45:20.317Z,22.90
2018-09-02T14:47:47.773Z,22.90
2018-09-02T14:50:15.259Z,22.90
2018-09-02T14:52:42.733Z,22.80
2018-09-02T14:55:10.400Z,22.80
2018-09-02T14:57:38.155Z,22.70
2018-09-02T15:00:05.738Z,22.80
2018-09-02T15:02:33.216Z,22.80
2018-09-02T15:05:00.720Z,22.70
2018-09-02T15:07:28.229Z,22.70
2018-09-02T15:09:56.095Z,22.70
2018-09-02T15:12:23.602Z,22.70
2018-09-02T15:14:51.086Z,22.70
2018-09-02T15:17:19.987Z,22.70
2018-09-02T15:19:47.457Z,22.70
2018-09-02T15:22:14.983Z,22.70
2018-09-02T15:24:42.390Z,22.70
2018-09-02T15:27:09.924Z,22.70
2018-09-02T15:29:37.346Z,22.90
2018-09-02T15:32:04.997Z,22.70
2018-09-02T15:34:32.458Z,22.70
2018-09-02T15:36:59.933Z,22.70
2018-09-02T15:39:27.852Z,22.70
2018-09-02T15:41:55.291Z,22.80
2018-09-02T15:44:22.749Z,22.70
2018-09-02T15:46:50.215Z,22.70
2018-09-02T15:49:17.633Z,22.80
2018-09-02T15:51:45.225Z,22.70
2018-09-02T15:54:12.641Z,22.80
2018-09-02T15:56:40.080Z,22.70
2018-09-02T15:59:07.713Z,22.70
2018-09-02T16:01:35.192Z,22.50
2018-09-02T16:04:02.680Z,22.70
2018-09-02T16:06:30.174Z,22.70
2018-09-02T16:08:57.558Z,22.70
2018-09-02T16:11:25.050Z,22.70
2018-09-02T16:13:53.506Z,22.70
2018-09-02T16:16:20.958Z,22.60
2018-09-02T16:18:48.420Z,22.60
2018-09-02T16:21:16.442Z,22.60
2018-09-02T16:23:43.874Z,22.60
2018-09-02T16:26:11.366Z,22.60
2018-09-02T16:28:38.855Z,22.60
2018-09-02T16:31:06.339Z,22.50
2018-09-02T16:33:34.338Z,22.40
2018-09-02T16:36:01.913Z,22.50
2018-09-02T16:38:29.357Z,22.40
2018-09-02T16:40:56.751Z,22.40
2018-09-02T16:43:24.214Z,22.30
2018-09-02T16:45:51.663Z,22.30
2018-09-02T16:48:19.124Z,22.30
2018-09-02T16:50:46.600Z,21.40
2018-09-02T16:53:14.090Z,22.20
2018-09-02T16:55:41.508Z,22.20
2018-09-02T16:58:09.050Z,22.20
2018-09-02T17:00:36.474Z,22.10
2018-09-02T17:03:03.954Z,22.10
2018-09-02T17:05:31.462Z,22.10
2018-09-02T17:07:58.901Z,22.00
2018-09-02T17:10:26.387Z,22.00
2018-09-02T17:12:55.441Z,22.00
2018-09-02T17:15:22.909Z,21.90
2018-09-02T17:17:50.430Z,22.00
2018-09-02T17:20:39.473Z,21.90
2018-09-02T17:23:12.146Z,21.90
2018-09-02T17:25:40.764Z,21.90
2018-09-02T17:28:08.189Z,21.80
2018-09-02T17:30:36.290Z,21.80
2018-09-02T17:33:04.154Z,21.80
2018-09-02T17:35:32.576Z,21.80
2018-09-02T17:38:00.067Z,21.70
2018-09-02T17:40:27.571Z,21.80
2018-09-02T17:42:55.324Z,21.80
2018-09-02T17:45:22.750Z,21.70
2018-09-02T17:47:50.217Z,21.70
2018-09-02T17:50:17.732Z,21.70
2018-09-02T17:52:45.355Z,21.70
2018-09-02T17:55:12.801Z,21.70
2018-09-02T17:57:40.321Z,21.70
2018-09-02T18:00:08.858Z,21.70
2018-09-02T18:02:36.323Z,21.60
2018-09-02T18:05:03.799Z,21.60
2018-09-02T18:07:31.311Z,21.50
2018-09-02T18:09:58.715Z,21.50
2018-09-02T18:12:26.283Z,21.50
2018-09-02T18:14:53.730Z,21.50
2018-09-02T18:17:21.197Z,21.50
2018-09-02T18:19:48.632Z,21.40
2018-09-02T18:22:16.119Z,21.40
2018-09-02T18:24:43.523Z,21.40
2018-09-02T18:27:11.577Z,21.40
2018-09-02T18:29:49.942Z,21.40
2018-09-02T18:32:17.394Z,21.40
2018-09-02T18:34:44.899Z,21.40
2018-09-02T18:37:12.329Z,21.40
2018-09-02T18:39:39.903Z,21.30
2018-09-02T18:42:07.357Z,21.30
2018-09-02T18:44:34.876Z,21.20
2018-09-02T18:47:02.355Z,21.30
2018-09-02T18:49:38.683Z,21.20
2018-09-02T18:52:06.279Z,21.30
2018-09-02T18:54:37.228Z,21.30
2018-09-02T18:57:04.790Z,21.30
2018-09-02T18:59:32.340Z,24.10
2018-09-02T19:01:59.834Z,21.30
2018-09-02T19:04:27.326Z,21.30
2018-09-02T19:06:54.739Z,21.20
2018-09-02T19:09:22.192Z,21.20
2018-09-02T19:11:49.598Z,21.20
2018-09-02T19:14:17.144Z,21.20
2018-09-02T19:16:44.604Z,21.20
2018-09-02T19:19:12.157Z,21.20
2018-09-02T19:21:46.646Z,21.20
2018-09-02T19:24:24.300Z,21.20
2018-09-02T19:27:11.203Z,21.20
2018-09-02T19:29:39.305Z,21.20
2018-09-02T19:32:06.846Z,21.20
2018-09-02T19:34:34.382Z,21.20
2018-09-02T19:37:01.877Z,21.20
2018-09-02T19:39:29.364Z,21.10
2018-09-02T19:41:57.206Z,21.10
2018-09-02T19:44:24.837Z,21.10
2018-09-02T19:46:52.289Z,21.10
2018-09-02T19:49:19.798Z,21.10
2018-09-02T19:51:47.242Z,21.10
2018-09-02T19:54:14.714Z,21.10
2018-09-02T19:56:42.171Z,21.10
2018-09-02T19:59:09.861Z,21.10
2018-09-02T20:01:37.308Z,21.10
2018-09-02T20:04:04.987Z,21.10
2018-09-02T20:06:32.654Z,21.10
2018-09-02T20:09:00.167Z,21.10
2018-09-02T20:11:27.778Z,21.10
2018-09-02T20:13:55.279Z,21.10
2018-09-02T20:16:23.331Z,21.00
2018-09-02T20:18:51.814Z,21.00
2018-09-02T20:21:19.500Z,21.00
2018-09-02T20:23:46.992Z,21.00
2018-09-02T20:26:15.081Z,21.00
2018-09-02T20:28:42.529Z,21.00
2018-09-02T20:31:10.013Z,21.00
2018-09-02T20:33:37.874Z,21.00
2018-09-02T20:36:07.544Z,21.00
2018-09-02T20:38:36.156Z,21.00
2018-09-02T20:41:03.669Z,20.90
2018-09-02T20:43:31.285Z,21.00
2018-09-02T20:45:58.816Z,20.90
2018-09-02T20:48:26.247Z,20.80
2018-09-02T20:50:53.720Z,20.90
2018-09-02T20:53:21.255Z,20.90
2018-09-02T20:55:48.731Z,20.90
2018-09-02T20:58:16.157Z,20.90
2018-09-02T21:00:43.658Z,20.90
2018-09-02T21:03:11.213Z,20.90
2018-09-02T21:05:38.705Z,20.90
2018-09-02T21:08:06.159Z,20.90
2018-09-02T21:10:33.675Z,20.90
2018-09-02T21:13:01.127Z,20.90
2018-09-02T21:15:28.561Z,21.00
2018-09-02T21:17:56.046Z,21.00
2018-09-02T21:20:23.493Z,21.00
2018-09-02T21:22:51.003Z,20.90
2018-09-02T21:25:18.486Z,20.90
2018-09-02T21:27:45.935Z,20.90
2018-09-02T21:30:13.444Z,20.90
2018-09-02T21:32:40.861Z,20.90
2018-09-02T21:35:08.367Z,20.90
2018-09-02T21:37:35.788Z,20.90
2018-09-02T21:40:03.357Z,20.90
2018-09-02T21:42:30.761Z,20.90
2018-09-02T21:44:58.270Z,20.90
2018-09-02T21:47:25.712Z,20.90
2018-09-02T21:49:53.234Z,20.90
2018-09-02T21:52:20.716Z,20.90
2018-09-02T21:54:48.132Z,20.90
2018-09-02T21:57:15.553Z,20.90
2018-09-02T21:59:43.040Z,20.90
2018-09-02T22:02:10.476Z,20.90
2018-09-02T22:04:38.034Z,20.80
2018-09-02T22:07:05.520Z,20.90
2018-09-02T22:09:32.946Z,20.90
2018-09-02T22:12:00.407Z,20.90
2018-09-02T22:14:27.860Z,20.90
2018-09-02T22:16:55.256Z,20.90
2018-09-02T22:19:22.764Z,20.90
2018-09-02T22:21:50.232Z,20.90
2018-09-02T22:24:17.652Z,20.90
2018-09-02T22:26:45.093Z,20.90
2018-09-02T22:29:12.553Z,20.90
2018-09-02T22:31:39.998Z,20.70
2018-09-02T22:34:07.522Z,20.90
2018-09-02T22:36:34.982Z,20.90
2018-09-02T22:39:02.472Z,20.90
2018-09-02T22:41:29.950Z,20.90
2018-09-02T22:43:57.442Z,20.80
2018-09-02T22:46:24.904Z,20.80
2018-09-02T22:48:52.454Z,20.80
2018-09-02T22:51:20.852Z,20.80
2018-09-02T22:53:48.267Z,20.80
2018-09-02T22:56:15.697Z,20.80
2018-09-02T22:58:43.459Z,20.70
2018-09-02T23:01:10.929Z,20.70
2018-09-02T23:03:38.373Z,20.70
2018-09-02T23:06:05.873Z,20.60
2018-09-02T23:08:33.287Z,20.60
2018-09-02T23:11:00.754Z,20.60
2018-09-02T23:13:28.210Z,20.50
2018-09-02T23:15:55.605Z,20.50
2018-09-02T23:18:23.108Z,20.50
2018-09-02T23:20:50.591Z,20.50
2018-09-02T23:23:18.149Z,20.50
2018-09-02T23:25:45.620Z,20.40
2018-09-02T23:28:13.123Z,20.40
2018-09-02T23:30:40.525Z,20.40
2018-09-02T23:33:08.065Z,20.40
2018-09-02T23:35:35.458Z,20.40
2018-09-02T23:38:02.929Z,20.30
2018-09-02T23:40:30.395Z,20.30
2018-09-02T23:42:58.445Z,20.30
2018-09-02T23:45:26.031Z,20.30
2018-09-02T23:47:53.468Z,20.30
2018-09-02T23:50:20.880Z,20.20
2018-09-02T23:52:48.283Z,20.20
2018-09-02T23:55:15.727Z,20.30
2018-09-02T23:57:43.203Z,20.20
